sensor_id;sensor_type;location;lat;lon;timestamp;temperature;humidity
12438;DHT22;6283;51.330;12.374;2022-09-09T00:00:18;16.10;1.00
12438;DHT22;6283;51.330;12.374;2022-09-09T00:02:53;15.80;1.00
12438;DHT22;6283;51.330;12.374;2022-09-09T00:05:55;15.80;1.00
12438;DHT22;6283;51.330;12.374;2022-09-09T00:08:32;16.00;1.00
12438;DHT22;6283;51.330;12.374;2022-09-09T00:11:04;15.80;1.00
12438;DHT22;6283;51.330;12.374;2022-09-09T00:13:50;15.80;1.00
12438;DHT22;6283;51.330;12.374;2022-09-09T00:16:23;15.80;1.00
12438;DHT22;6283;51.330;12.374;2022-09-09T00:21:41;15.80;1.00
12438;DHT22;6283;51.330;12.374;2022-09-09T00:24:26;15.80;1.00
12438;DHT22;6283;51.330;12.374;2022-09-09T00:26:57;15.70;1.00
12438;DHT22;6283;51.330;12.374;2022-09-09T00:32:05;15.60;1.00
12438;DHT22;6283;51.330;12.374;2022-09-09T00:34:35;15.70;1.00
12438;DHT22;6283;51.330;12.374;2022-09-09T00:37:02;15.70;1.00
12438;DHT22;6283;51.330;12.374;2022-09-09T00:39:38;15.70;1.00
12438;DHT22;6283;51.330;12.374;2022-09-09T00:50:17;15.40;1.00
12438;DHT22;6283;51.330;12.374;2022-09-09T00:56:14;15.60;1.00
12438;DHT22;6283;51.330;12.374;2022-09-09T00:58:14;15.60;1.00
12438;DHT22;6283;51.330;12.374;2022-09-09T01:00:42;15.70;1.00
12438;DHT22;6283;51.330;12.374;2022-09-09T01:03:32;15.50;1.00
12438;DHT22;6283;51.330;12.374;2022-09-09T01:17:03;15.40;1.00
12438;DHT22;6283;51.330;12.374;2022-09-09T01:22:21;15.40;1.00
12438;DHT22;6283;51.330;12.374;2022-09-09T01:27:36;15.30;1.00
12438;DHT22;6283;51.330;12.374;2022-09-09T01:30:14;15.40;1.00
12438;DHT22;6283;51.330;12.374;2022-09-09T01:35:11;15.40;1.00
12438;DHT22;6283;51.330;12.374;2022-09-09T01:37:38;15.50;1.00
12438;DHT22;6283;51.330;12.374;2022-09-09T01:40:04;15.30;1.00
12438;DHT22;6283;51.330;12.374;2022-09-09T01:42:30;15.20;1.00
12438;DHT22;6283;51.330;12.374;2022-09-09T01:44:55;15.20;1.00
12438;DHT22;6283;51.330;12.374;2022-09-09T01:47:21;15.30;1.00
12438;DHT22;6283;51.330;12.374;2022-09-09T01:49:46;15.30;1.00
12438;DHT22;6283;51.330;12.374;2022-09-09T01:52:12;15.40;1.00
12438;DHT22;6283;51.330;12.374;2022-09-09T01:54:38;15.20;1.00
12438;DHT22;6283;51.330;12.374;2022-09-09T02:00:04;15.40;1.00
12438;DHT22;6283;51.330;12.374;2022-09-09T02:05:36;15.30;1.00
12438;DHT22;6283;51.330;12.374;2022-09-09T02:08:42;15.30;1.00
12438;DHT22;6283;51.330;12.374;2022-09-09T02:11:26;15.40;1.00
12438;DHT22;6283;51.330;12.374;2022-09-09T02:14:03;15.30;1.00
12438;DHT22;6283;51.330;12.374;2022-09-09T02:16:48;15.40;1.00
12438;DHT22;6283;51.330;12.374;2022-09-09T02:19:22;15.50;1.00
12438;DHT22;6283;51.330;12.374;2022-09-09T02:21:54;15.20;1.00
12438;DHT22;6283;51.330;12.374;2022-09-09T02:24:21;15.20;1.00
12438;DHT22;6283;51.330;12.374;2022-09-09T02:26:50;15.40;1.00
12438;DHT22;6283;51.330;12.374;2022-09-09T02:29:31;15.40;1.00
12438;DHT22;6283;51.330;12.374;2022-09-09T02:32:00;15.10;1.00
12438;DHT22;6283;51.330;12.374;2022-09-09T02:34:30;15.10;1.00
12438;DHT22;6283;51.330;12.374;2022-09-09T02:36:57;15.40;1.00
12438;DHT22;6283;51.330;12.374;2022-09-09T02:39:25;15.30;1.00
12438;DHT22;6283;51.330;12.374;2022-09-09T02:41:51;15.10;1.00
12438;DHT22;6283;51.330;12.374;2022-09-09T02:44:18;15.20;1.00
12438;DHT22;6283;51.330;12.374;2022-09-09T02:49:32;15.00;1.00
12438;DHT22;6283;51.330;12.374;2022-09-09T02:52:05;15.00;1.00
12438;DHT22;6283;51.330;12.374;2022-09-09T02:54:33;15.10;1.00
12438;DHT22;6283;51.330;12.374;2022-09-09T02:57:06;14.90;1.00
12438;DHT22;6283;51.330;12.374;2022-09-09T02:59:33;15.10;1.00
12438;DHT22;6283;51.330;12.374;2022-09-09T03:01:59;15.10;1.00
12438;DHT22;6283;51.330;12.374;2022-09-09T03:04:24;15.10;1.00
12438;DHT22;6283;51.330;12.374;2022-09-09T03:06:50;15.00;1.00
12438;DHT22;6283;51.330;12.374;2022-09-09T03:09:16;15.20;1.00
12438;DHT22;6283;51.330;12.374;2022-09-09T03:11:42;15.20;1.00
12438;DHT22;6283;51.330;12.374;2022-09-09T03:14:07;14.90;1.00
12438;DHT22;6283;51.330;12.374;2022-09-09T03:16:33;15.10;1.00
12438;DHT22;6283;51.330;12.374;2022-09-09T03:19:00;14.90;1.00
12438;DHT22;6283;51.330;12.374;2022-09-09T03:21:25;14.80;1.00
12438;DHT22;6283;51.330;12.374;2022-09-09T03:23:51;14.90;1.00
12438;DHT22;6283;51.330;12.374;2022-09-09T03:26:17;14.90;1.00
12438;DHT22;6283;51.330;12.374;2022-09-09T03:28:43;14.90;1.00
12438;DHT22;6283;51.330;12.374;2022-09-09T03:31:10;15.10;1.00
12438;DHT22;6283;51.330;12.374;2022-09-09T03:33:37;14.80;1.00
12438;DHT22;6283;51.330;12.374;2022-09-09T03:36:04;15.10;1.00
12438;DHT22;6283;51.330;12.374;2022-09-09T03:38:30;15.20;1.00
12438;DHT22;6283;51.330;12.374;2022-09-09T03:40:56;15.10;1.00
12438;DHT22;6283;51.330;12.374;2022-09-09T03:43:27;15.00;1.00
12438;DHT22;6283;51.330;12.374;2022-09-09T03:45:54;15.00;1.00
12438;DHT22;6283;51.330;12.374;2022-09-09T03:48:23;15.00;1.00
12438;DHT22;6283;51.330;12.374;2022-09-09T03:50:51;15.10;1.00
12438;DHT22;6283;51.330;12.374;2022-09-09T03:53:20;14.80;1.00
12438;DHT22;6283;51.330;12.374;2022-09-09T03:55:48;14.70;1.00
12438;DHT22;6283;51.330;12.374;2022-09-09T03:58:16;14.90;1.00
12438;DHT22;6283;51.330;12.374;2022-09-09T04:00:52;15.10;1.00
12438;DHT22;6283;51.330;12.374;2022-09-09T04:03:18;14.90;1.00
12438;DHT22;6283;51.330;12.374;2022-09-09T04:05:43;14.80;1.00
12438;DHT22;6283;51.330;12.374;2022-09-09T04:08:09;14.90;1.00
12438;DHT22;6283;51.330;12.374;2022-09-09T04:10:38;14.80;1.00
12438;DHT22;6283;51.330;12.374;2022-09-09T04:13:06;14.90;1.00
12438;DHT22;6283;51.330;12.374;2022-09-09T04:15:32;14.90;1.00
12438;DHT22;6283;51.330;12.374;2022-09-09T04:17:58;14.80;1.00
12438;DHT22;6283;51.330;12.374;2022-09-09T04:20:24;14.90;1.00
12438;DHT22;6283;51.330;12.374;2022-09-09T04:22:49;14.90;1.00
12438;DHT22;6283;51.330;12.374;2022-09-09T04:25:15;15.00;1.00
12438;DHT22;6283;51.330;12.374;2022-09-09T04:27:40;15.00;1.00
12438;DHT22;6283;51.330;12.374;2022-09-09T04:30:07;15.00;1.00
12438;DHT22;6283;51.330;12.374;2022-09-09T04:32:33;14.90;1.00
12438;DHT22;6283;51.330;12.374;2022-09-09T04:34:59;15.10;1.00
12438;DHT22;6283;51.330;12.374;2022-09-09T04:37:25;15.00;1.00
12438;DHT22;6283;51.330;12.374;2022-09-09T04:39:50;15.20;1.00
12438;DHT22;6283;51.330;12.374;2022-09-09T04:42:16;15.20;1.00
12438;DHT22;6283;51.330;12.374;2022-09-09T04:44:43;15.20;1.00
12438;DHT22;6283;51.330;12.374;2022-09-09T04:47:09;15.30;1.00
12438;DHT22;6283;51.330;12.374;2022-09-09T04:49:35;15.10;1.00
12438;DHT22;6283;51.330;12.374;2022-09-09T04:52:02;15.40;1.00
12438;DHT22;6283;51.330;12.374;2022-09-09T04:54:28;15.30;1.00
12438;DHT22;6283;51.330;12.374;2022-09-09T04:56:54;15.20;1.00
12438;DHT22;6283;51.330;12.374;2022-09-09T04:59:20;15.10;1.00
12438;DHT22;6283;51.330;12.374;2022-09-09T05:01:47;15.40;1.00
12438;DHT22;6283;51.330;12.374;2022-09-09T05:04:12;15.00;1.00
12438;DHT22;6283;51.330;12.374;2022-09-09T05:06:40;15.10;1.00
12438;DHT22;6283;51.330;12.374;2022-09-09T05:09:06;15.00;1.00
12438;DHT22;6283;51.330;12.374;2022-09-09T05:11:32;15.30;1.00
12438;DHT22;6283;51.330;12.374;2022-09-09T05:13:59;15.20;1.00
12438;DHT22;6283;51.330;12.374;2022-09-09T05:16:25;15.10;1.00
12438;DHT22;6283;51.330;12.374;2022-09-09T05:18:51;15.30;1.00
12438;DHT22;6283;51.330;12.374;2022-09-09T05:21:19;15.20;1.00
12438;DHT22;6283;51.330;12.374;2022-09-09T05:23:45;15.60;1.00
12438;DHT22;6283;51.330;12.374;2022-09-09T05:26:16;15.40;1.00
12438;DHT22;6283;51.330;12.374;2022-09-09T05:28:42;15.70;1.00
12438;DHT22;6283;51.330;12.374;2022-09-09T05:31:09;15.70;1.00
12438;DHT22;6283;51.330;12.374;2022-09-09T05:33:36;15.70;1.00
12438;DHT22;6283;51.330;12.374;2022-09-09T05:36:07;15.90;1.00
12438;DHT22;6283;51.330;12.374;2022-09-09T05:38:34;16.00;1.00
12438;DHT22;6283;51.330;12.374;2022-09-09T05:41:00;16.00;1.00
12438;DHT22;6283;51.330;12.374;2022-09-09T05:43:27;16.00;1.00
12438;DHT22;6283;51.330;12.374;2022-09-09T05:46:09;16.20;1.00
12438;DHT22;6283;51.330;12.374;2022-09-09T05:48:39;16.00;1.00
12438;DHT22;6283;51.330;12.374;2022-09-09T05:51:07;16.10;1.00
12438;DHT22;6283;51.330;12.374;2022-09-09T05:53:34;16.20;1.00
12438;DHT22;6283;51.330;12.374;2022-09-09T05:56:04;16.20;1.00
12438;DHT22;6283;51.330;12.374;2022-09-09T05:58:34;16.30;1.00
12438;DHT22;6283;51.330;12.374;2022-09-09T06:01:01;16.30;1.00
12438;DHT22;6283;51.330;12.374;2022-09-09T06:03:27;16.30;1.00
12438;DHT22;6283;51.330;12.374;2022-09-09T06:06:00;16.30;1.00
12438;DHT22;6283;51.330;12.374;2022-09-09T06:08:26;16.10;1.00
12438;DHT22;6283;51.330;12.374;2022-09-09T06:10:52;16.40;1.00
12438;DHT22;6283;51.330;12.374;2022-09-09T06:13:18;16.40;1.00
12438;DHT22;6283;51.330;12.374;2022-09-09T06:15:52;16.40;1.00
12438;DHT22;6283;51.330;12.374;2022-09-09T06:18:18;16.40;1.00
12438;DHT22;6283;51.330;12.374;2022-09-09T06:20:58;16.40;1.00
12438;DHT22;6283;51.330;12.374;2022-09-09T06:23:25;16.50;1.00
12438;DHT22;6283;51.330;12.374;2022-09-09T06:25:51;16.60;1.00
12438;DHT22;6283;51.330;12.374;2022-09-09T06:28:17;16.60;1.00
12438;DHT22;6283;51.330;12.374;2022-09-09T06:30:43;16.70;1.00
12438;DHT22;6283;51.330;12.374;2022-09-09T06:33:10;16.80;1.00
12438;DHT22;6283;51.330;12.374;2022-09-09T06:35:35;16.80;1.00
12438;DHT22;6283;51.330;12.374;2022-09-09T06:38:01;16.90;1.00
12438;DHT22;6283;51.330;12.374;2022-09-09T06:40:26;16.90;1.00
12438;DHT22;6283;51.330;12.374;2022-09-09T06:42:52;16.90;1.00
12438;DHT22;6283;51.330;12.374;2022-09-09T06:45:18;17.00;1.00
12438;DHT22;6283;51.330;12.374;2022-09-09T06:47:44;17.00;1.00
12438;DHT22;6283;51.330;12.374;2022-09-09T06:50:10;17.00;1.00
12438;DHT22;6283;51.330;12.374;2022-09-09T06:52:36;17.10;1.00
12438;DHT22;6283;51.330;12.374;2022-09-09T06:55:02;17.10;1.00
12438;DHT22;6283;51.330;12.374;2022-09-09T06:57:28;17.10;1.00
12438;DHT22;6283;51.330;12.374;2022-09-09T06:59:53;17.20;1.00
12438;DHT22;6283;51.330;12.374;2022-09-09T07:02:19;17.30;1.00
12438;DHT22;6283;51.330;12.374;2022-09-09T07:04:45;17.30;1.00
12438;DHT22;6283;51.330;12.374;2022-09-09T07:07:10;17.40;1.00
12438;DHT22;6283;51.330;12.374;2022-09-09T07:09:38;17.50;1.00
12438;DHT22;6283;51.330;12.374;2022-09-09T07:12:05;17.60;1.00
12438;DHT22;6283;51.330;12.374;2022-09-09T07:14:31;17.60;1.00
12438;DHT22;6283;51.330;12.374;2022-09-09T07:16:58;17.60;1.00
12438;DHT22;6283;51.330;12.374;2022-09-09T07:19:23;17.60;1.00
12438;DHT22;6283;51.330;12.374;2022-09-09T07:21:49;17.70;1.00
12438;DHT22;6283;51.330;12.374;2022-09-09T07:24:15;17.80;1.00
12438;DHT22;6283;51.330;12.374;2022-09-09T07:26:41;17.90;1.00
12438;DHT22;6283;51.330;12.374;2022-09-09T07:29:07;18.10;1.00
12438;DHT22;6283;51.330;12.374;2022-09-09T07:31:35;18.20;1.00
12438;DHT22;6283;51.330;12.374;2022-09-09T07:34:02;18.20;1.00
12438;DHT22;6283;51.330;12.374;2022-09-09T07:36:30;18.30;1.00
12438;DHT22;6283;51.330;12.374;2022-09-09T07:38:58;18.40;1.00
12438;DHT22;6283;51.330;12.374;2022-09-09T07:41:27;18.50;1.00
12438;DHT22;6283;51.330;12.374;2022-09-09T07:43:53;18.60;1.00
12438;DHT22;6283;51.330;12.374;2022-09-09T07:46:22;18.60;1.00
12438;DHT22;6283;51.330;12.374;2022-09-09T07:48:50;18.60;1.00
12438;DHT22;6283;51.330;12.374;2022-09-09T07:51:18;18.60;1.00
12438;DHT22;6283;51.330;12.374;2022-09-09T07:53:45;18.50;1.00
12438;DHT22;6283;51.330;12.374;2022-09-09T07:56:14;18.60;1.00
12438;DHT22;6283;51.330;12.374;2022-09-09T07:58:41;18.60;1.00
12438;DHT22;6283;51.330;12.374;2022-09-09T08:01:19;18.70;1.00
12438;DHT22;6283;51.330;12.374;2022-09-09T08:03:46;18.80;1.00
12438;DHT22;6283;51.330;12.374;2022-09-09T08:06:12;19.00;1.00
12438;DHT22;6283;51.330;12.374;2022-09-09T08:08:39;19.10;1.00
12438;DHT22;6283;51.330;12.374;2022-09-09T08:11:16;19.20;1.00
12438;DHT22;6283;51.330;12.374;2022-09-09T08:13:43;19.40;1.00
12438;DHT22;6283;51.330;12.374;2022-09-09T08:16:15;19.60;1.00
12438;DHT22;6283;51.330;12.374;2022-09-09T08:18:41;19.70;1.00
12438;DHT22;6283;51.330;12.374;2022-09-09T08:21:12;19.90;1.00
12438;DHT22;6283;51.330;12.374;2022-09-09T08:23:39;19.90;1.00
12438;DHT22;6283;51.330;12.374;2022-09-09T08:26:12;20.00;1.00
12438;DHT22;6283;51.330;12.374;2022-09-09T08:28:39;19.90;1.00
12438;DHT22;6283;51.330;12.374;2022-09-09T08:31:16;19.80;1.00
12438;DHT22;6283;51.330;12.374;2022-09-09T08:33:43;19.80;1.00
12438;DHT22;6283;51.330;12.374;2022-09-09T08:36:13;19.80;1.00
12438;DHT22;6283;51.330;12.374;2022-09-09T08:38:41;19.80;1.00
12438;DHT22;6283;51.330;12.374;2022-09-09T08:55:03;20.00;1.00
12438;DHT22;6283;51.330;12.374;2022-09-09T08:57:30;20.10;1.00
12438;DHT22;6283;51.330;12.374;2022-09-09T08:59:57;20.20;1.00
12438;DHT22;6283;51.330;12.374;2022-09-09T09:08:25;20.40;1.00
12438;DHT22;6283;51.330;12.374;2022-09-09T09:10:54;20.50;1.00
12438;DHT22;6283;51.330;12.374;2022-09-09T09:19:13;20.80;1.00
12438;DHT22;6283;51.330;12.374;2022-09-09T09:21:45;20.90;1.00
12438;DHT22;6283;51.330;12.374;2022-09-09T09:24:23;21.00;1.00
12438;DHT22;6283;51.330;12.374;2022-09-09T09:26:52;21.20;1.00
12438;DHT22;6283;51.330;12.374;2022-09-09T09:29:19;21.40;1.00
12438;DHT22;6283;51.330;12.374;2022-09-09T09:31:54;21.50;1.00
12438;DHT22;6283;51.330;12.374;2022-09-09T09:34:20;21.60;1.00
12438;DHT22;6283;51.330;12.374;2022-09-09T09:36:56;21.70;1.00
12438;DHT22;6283;51.330;12.374;2022-09-09T09:39:31;21.80;1.00
12438;DHT22;6283;51.330;12.374;2022-09-09T09:41:57;21.90;1.00
12438;DHT22;6283;51.330;12.374;2022-09-09T09:44:29;22.10;1.00
12438;DHT22;6283;51.330;12.374;2022-09-09T09:47:16;22.20;1.00
12438;DHT22;6283;51.330;12.374;2022-09-09T09:49:53;22.20;1.00
12438;DHT22;6283;51.330;12.374;2022-09-09T09:52:23;22.20;1.00
12438;DHT22;6283;51.330;12.374;2022-09-09T09:54:50;22.30;1.00
12438;DHT22;6283;51.330;12.374;2022-09-09T09:57:18;22.30;1.00
12438;DHT22;6283;51.330;12.374;2022-09-09T09:59:49;22.40;1.00
12438;DHT22;6283;51.330;12.374;2022-09-09T10:02:24;22.40;1.00
12438;DHT22;6283;51.330;12.374;2022-09-09T10:05:15;22.50;1.00
12438;DHT22;6283;51.330;12.374;2022-09-09T10:07:42;22.50;1.00
12438;DHT22;6283;51.330;12.374;2022-09-09T10:10:25;22.50;1.00
12438;DHT22;6283;51.330;12.374;2022-09-09T10:13:27;22.40;1.00
12438;DHT22;6283;51.330;12.374;2022-09-09T10:24:44;22.40;1.00
12438;DHT22;6283;51.330;12.374;2022-09-09T10:27:38;22.50;1.00
12438;DHT22;6283;51.330;12.374;2022-09-09T10:30:24;22.50;1.00
12438;DHT22;6283;51.330;12.374;2022-09-09T10:33:10;22.50;1.00
12438;DHT22;6283;51.330;12.374;2022-09-09T10:38:25;22.70;1.00
12438;DHT22;6283;51.330;12.374;2022-09-09T10:52:01;22.70;1.00
12438;DHT22;6283;51.330;12.374;2022-09-09T10:59:53;22.50;1.00
12438;DHT22;6283;51.330;12.374;2022-09-09T11:02:26;22.50;1.00
12438;DHT22;6283;51.330;12.374;2022-09-09T11:04:56;22.50;1.00
12438;DHT22;6283;51.330;12.374;2022-09-09T11:07:44;22.50;1.00
12438;DHT22;6283;51.330;12.374;2022-09-09T11:10:38;22.50;1.00
12438;DHT22;6283;51.330;12.374;2022-09-09T11:13:15;22.50;1.00
12438;DHT22;6283;51.330;12.374;2022-09-09T11:15:45;22.50;1.00
12438;DHT22;6283;51.330;12.374;2022-09-09T11:18:19;22.60;1.00
12438;DHT22;6283;51.330;12.374;2022-09-09T11:20:48;22.60;1.00
12438;DHT22;6283;51.330;12.374;2022-09-09T11:24:16;22.60;1.00
12438;DHT22;6283;51.330;12.374;2022-09-09T11:27:08;22.60;1.00
12438;DHT22;6283;51.330;12.374;2022-09-09T11:32:44;22.90;1.00
12438;DHT22;6283;51.330;12.374;2022-09-09T11:38:29;23.50;1.00
12438;DHT22;6283;51.330;12.374;2022-09-09T11:40:58;23.70;1.00
12438;DHT22;6283;51.330;12.374;2022-09-09T11:43:29;23.90;1.00
12438;DHT22;6283;51.330;12.374;2022-09-09T11:45:58;23.80;1.00
12438;DHT22;6283;51.330;12.374;2022-09-09T11:48:36;23.70;1.00
12438;DHT22;6283;51.330;12.374;2022-09-09T11:51:04;23.50;1.00
12438;DHT22;6283;51.330;12.374;2022-09-09T11:53:31;23.20;1.00
12438;DHT22;6283;51.330;12.374;2022-09-09T11:56:12;23.20;1.00
12438;DHT22;6283;51.330;12.374;2022-09-09T11:58:55;23.30;1.00
12438;DHT22;6283;51.330;12.374;2022-09-09T12:01:33;23.40;1.00
12438;DHT22;6283;51.330;12.374;2022-09-09T12:04:13;23.60;1.00
12438;DHT22;6283;51.330;12.374;2022-09-09T12:06:44;23.80;1.00
12438;DHT22;6283;51.330;12.374;2022-09-09T12:09:27;23.90;1.00
12438;DHT22;6283;51.330;12.374;2022-09-09T12:12:27;24.10;1.00
12438;DHT22;6283;51.330;12.374;2022-09-09T12:17:45;24.90;1.00
12438;DHT22;6283;51.330;12.374;2022-09-09T12:20:14;25.00;1.00
12438;DHT22;6283;51.330;12.374;2022-09-09T12:23:14;25.00;1.00
12438;DHT22;6283;51.330;12.374;2022-09-09T12:25:49;25.10;1.00
12438;DHT22;6283;51.330;12.374;2022-09-09T12:33:38;24.50;1.00
12438;DHT22;6283;51.330;12.374;2022-09-09T12:36:18;24.30;1.00
12438;DHT22;6283;51.330;12.374;2022-09-09T12:38:45;24.50;1.00
12438;DHT22;6283;51.330;12.374;2022-09-09T12:41:21;24.80;1.00
12438;DHT22;6283;51.330;12.374;2022-09-09T12:43:47;25.30;1.00
12438;DHT22;6283;51.330;12.374;2022-09-09T12:46:23;25.60;1.00
12438;DHT22;6283;51.330;12.374;2022-09-09T12:48:52;25.90;1.00
12438;DHT22;6283;51.330;12.374;2022-09-09T12:51:24;26.10;1.00
12438;DHT22;6283;51.330;12.374;2022-09-09T12:53:51;26.40;1.00
12438;DHT22;6283;51.330;12.374;2022-09-09T12:56:28;26.50;1.00
12438;DHT22;6283;51.330;12.374;2022-09-09T12:58:56;26.60;1.00
12438;DHT22;6283;51.330;12.374;2022-09-09T13:01:31;26.90;1.00
12438;DHT22;6283;51.330;12.374;2022-09-09T13:03:59;27.10;1.00
12438;DHT22;6283;51.330;12.374;2022-09-09T13:06:27;27.20;1.00
12438;DHT22;6283;51.330;12.374;2022-09-09T13:08:55;27.20;1.00
12438;DHT22;6283;51.330;12.374;2022-09-09T13:11:25;27.10;1.00
12438;DHT22;6283;51.330;12.374;2022-09-09T13:13:54;26.90;1.00
12438;DHT22;6283;51.330;12.374;2022-09-09T13:18:59;26.50;1.00
12438;DHT22;6283;51.330;12.374;2022-09-09T13:21:38;26.10;1.00
12438;DHT22;6283;51.330;12.374;2022-09-09T13:24:27;25.70;1.00
12438;DHT22;6283;51.330;12.374;2022-09-09T13:26:59;25.30;1.00
12438;DHT22;6283;51.330;12.374;2022-09-09T13:29:27;24.90;1.00
12438;DHT22;6283;51.330;12.374;2022-09-09T13:31:54;24.60;1.00
12438;DHT22;6283;51.330;12.374;2022-09-09T13:34:32;24.40;1.00
12438;DHT22;6283;51.330;12.374;2022-09-09T13:37:06;24.30;1.00
12438;DHT22;6283;51.330;12.374;2022-09-09T13:39:36;24.10;1.00
12438;DHT22;6283;51.330;12.374;2022-09-09T13:42:03;23.90;1.00
12438;DHT22;6283;51.330;12.374;2022-09-09T13:44:35;23.80;1.00
12438;DHT22;6283;51.330;12.374;2022-09-09T13:47:21;23.70;1.00
12438;DHT22;6283;51.330;12.374;2022-09-09T13:49:48;23.70;1.00
12438;DHT22;6283;51.330;12.374;2022-09-09T13:52:16;23.60;1.00
12438;DHT22;6283;51.330;12.374;2022-09-09T13:54:48;23.50;1.00
12438;DHT22;6283;51.330;12.374;2022-09-09T13:57:22;23.40;1.00
12438;DHT22;6283;51.330;12.374;2022-09-09T13:59:52;23.10;1.00
12438;DHT22;6283;51.330;12.374;2022-09-09T14:02:18;22.70;1.00
12438;DHT22;6283;51.330;12.374;2022-09-09T14:04:44;22.00;1.00
12438;DHT22;6283;51.330;12.374;2022-09-09T14:07:17;20.90;1.00
12438;DHT22;6283;51.330;12.374;2022-09-09T14:09:43;19.90;1.00
12438;DHT22;6283;51.330;12.374;2022-09-09T14:12:12;19.10;1.00
12438;DHT22;6283;51.330;12.374;2022-09-09T14:14:40;18.70;1.00
12438;DHT22;6283;51.330;12.374;2022-09-09T14:17:07;18.50;1.00
12438;DHT22;6283;51.330;12.374;2022-09-09T14:19:33;18.50;1.00
12438;DHT22;6283;51.330;12.374;2022-09-09T14:21:59;18.40;1.00
12438;DHT22;6283;51.330;12.374;2022-09-09T14:24:25;18.50;1.00
12438;DHT22;6283;51.330;12.374;2022-09-09T14:26:51;18.70;1.00
12438;DHT22;6283;51.330;12.374;2022-09-09T14:29:17;18.80;1.00
12438;DHT22;6283;51.330;12.374;2022-09-09T14:31:42;19.00;1.00
12438;DHT22;6283;51.330;12.374;2022-09-09T14:34:08;19.20;1.00
12438;DHT22;6283;51.330;12.374;2022-09-09T14:36:36;19.40;1.00
12438;DHT22;6283;51.330;12.374;2022-09-09T14:39:02;19.50;1.00
12438;DHT22;6283;51.330;12.374;2022-09-09T14:41:28;19.70;1.00
12438;DHT22;6283;51.330;12.374;2022-09-09T14:43:54;19.90;1.00
12438;DHT22;6283;51.330;12.374;2022-09-09T14:46:20;20.00;1.00
12438;DHT22;6283;51.330;12.374;2022-09-09T14:48:46;20.20;1.00
12438;DHT22;6283;51.330;12.374;2022-09-09T14:51:23;20.30;1.00
12438;DHT22;6283;51.330;12.374;2022-09-09T14:53:53;20.40;1.00
12438;DHT22;6283;51.330;12.374;2022-09-09T14:56:21;20.50;1.00
12438;DHT22;6283;51.330;12.374;2022-09-09T14:58:48;20.60;1.00
12438;DHT22;6283;51.330;12.374;2022-09-09T15:01:16;20.70;1.00
12438;DHT22;6283;51.330;12.374;2022-09-09T15:03:43;20.90;1.00
12438;DHT22;6283;51.330;12.374;2022-09-09T15:06:14;21.30;1.00
12438;DHT22;6283;51.330;12.374;2022-09-09T15:08:44;22.10;1.00
12438;DHT22;6283;51.330;12.374;2022-09-09T15:11:14;22.90;1.00
12438;DHT22;6283;51.330;12.374;2022-09-09T15:13:41;23.70;1.00
12438;DHT22;6283;51.330;12.374;2022-09-09T15:16:10;24.40;1.00
12438;DHT22;6283;51.330;12.374;2022-09-09T15:18:36;25.20;1.00
12438;DHT22;6283;51.330;12.374;2022-09-09T15:21:05;25.70;1.00
12438;DHT22;6283;51.330;12.374;2022-09-09T15:23:35;26.10;1.00
12438;DHT22;6283;51.330;12.374;2022-09-09T15:26:01;26.40;1.00
12438;DHT22;6283;51.330;12.374;2022-09-09T15:28:27;26.50;1.00
12438;DHT22;6283;51.330;12.374;2022-09-09T15:30:53;26.70;1.00
12438;DHT22;6283;51.330;12.374;2022-09-09T15:33:21;26.90;1.00
12438;DHT22;6283;51.330;12.374;2022-09-09T15:35:47;27.20;1.00
12438;DHT22;6283;51.330;12.374;2022-09-09T15:38:13;27.50;1.00
12438;DHT22;6283;51.330;12.374;2022-09-09T15:40:40;27.80;1.00
12438;DHT22;6283;51.330;12.374;2022-09-09T15:43:06;28.10;1.00
12438;DHT22;6283;51.330;12.374;2022-09-09T15:45:33;28.40;1.00
12438;DHT22;6283;51.330;12.374;2022-09-09T15:48:03;28.60;1.00
12438;DHT22;6283;51.330;12.374;2022-09-09T15:50:28;28.70;1.00
12438;DHT22;6283;51.330;12.374;2022-09-09T15:52:58;28.70;1.00
12438;DHT22;6283;51.330;12.374;2022-09-09T15:55:23;28.60;1.00
12438;DHT22;6283;51.330;12.374;2022-09-09T15:57:49;28.50;1.00
12438;DHT22;6283;51.330;12.374;2022-09-09T16:00:18;28.40;1.00
12438;DHT22;6283;51.330;12.374;2022-09-09T16:02:43;28.30;1.00
12438;DHT22;6283;51.330;12.374;2022-09-09T16:05:09;28.30;1.00
12438;DHT22;6283;51.330;12.374;2022-09-09T16:07:35;28.50;1.00
12438;DHT22;6283;51.330;12.374;2022-09-09T16:10:01;28.40;1.00
12438;DHT22;6283;51.330;12.374;2022-09-09T16:12:27;28.40;1.00
12438;DHT22;6283;51.330;12.374;2022-09-09T16:14:52;28.50;1.00
12438;DHT22;6283;51.330;12.374;2022-09-09T16:17:18;28.50;1.00
12438;DHT22;6283;51.330;12.374;2022-09-09T16:19:45;28.50;1.00
12438;DHT22;6283;51.330;12.374;2022-09-09T16:22:11;28.60;1.00
12438;DHT22;6283;51.330;12.374;2022-09-09T16:24:37;28.60;1.00
12438;DHT22;6283;51.330;12.374;2022-09-09T16:27:03;28.70;1.00
12438;DHT22;6283;51.330;12.374;2022-09-09T16:29:29;28.70;1.00
12438;DHT22;6283;51.330;12.374;2022-09-09T16:31:55;28.70;1.00
12438;DHT22;6283;51.330;12.374;2022-09-09T16:34:21;28.50;1.00
12438;DHT22;6283;51.330;12.374;2022-09-09T16:36:48;28.30;1.00
12438;DHT22;6283;51.330;12.374;2022-09-09T16:39:16;27.80;1.00
12438;DHT22;6283;51.330;12.374;2022-09-09T16:41:43;27.30;1.00
12438;DHT22;6283;51.330;12.374;2022-09-09T16:44:11;27.00;1.00
12438;DHT22;6283;51.330;12.374;2022-09-09T16:46:41;27.00;1.00
12438;DHT22;6283;51.330;12.374;2022-09-09T16:49:11;26.90;1.00
12438;DHT22;6283;51.330;12.374;2022-09-09T16:54:09;26.20;1.00
12438;DHT22;6283;51.330;12.374;2022-09-09T16:56:37;25.80;1.00
12438;DHT22;6283;51.330;12.374;2022-09-09T16:59:05;25.40;1.00
12438;DHT22;6283;51.330;12.374;2022-09-09T17:01:33;24.90;1.00
12438;DHT22;6283;51.330;12.374;2022-09-09T17:04:03;24.50;1.00
12438;DHT22;6283;51.330;12.374;2022-09-09T17:06:31;24.10;1.00
12438;DHT22;6283;51.330;12.374;2022-09-09T17:09:02;23.90;1.00
12438;DHT22;6283;51.330;12.374;2022-09-09T17:11:29;23.60;1.00
12438;DHT22;6283;51.330;12.374;2022-09-09T17:13:56;23.40;1.00
12438;DHT22;6283;51.330;12.374;2022-09-09T17:16:25;23.20;1.00
12438;DHT22;6283;51.330;12.374;2022-09-09T17:18:53;23.10;1.00
12438;DHT22;6283;51.330;12.374;2022-09-09T17:21:21;23.00;1.00
12438;DHT22;6283;51.330;12.374;2022-09-09T17:23:47;22.80;1.00
12438;DHT22;6283;51.330;12.374;2022-09-09T17:26:18;22.70;1.00
12438;DHT22;6283;51.330;12.374;2022-09-09T17:28:45;22.60;1.00
12438;DHT22;6283;51.330;12.374;2022-09-09T17:31:13;22.40;1.00
12438;DHT22;6283;51.330;12.374;2022-09-09T17:33:40;22.30;1.00
12438;DHT22;6283;51.330;12.374;2022-09-09T17:36:31;22.20;1.00
12438;DHT22;6283;51.330;12.374;2022-09-09T17:38:57;22.10;1.00
12438;DHT22;6283;51.330;12.374;2022-09-09T17:41:36;22.00;1.00
12438;DHT22;6283;51.330;12.374;2022-09-09T17:44:02;21.90;1.00
12438;DHT22;6283;51.330;12.374;2022-09-09T17:46:34;21.70;1.00
12438;DHT22;6283;51.330;12.374;2022-09-09T17:49:03;21.60;1.00
12438;DHT22;6283;51.330;12.374;2022-09-09T17:51:30;21.50;1.00
12438;DHT22;6283;51.330;12.374;2022-09-09T17:53:59;21.40;1.00
12438;DHT22;6283;51.330;12.374;2022-09-09T17:56:27;21.30;1.00
12438;DHT22;6283;51.330;12.374;2022-09-09T17:58:54;21.20;1.00